Time;durP1;ratioP1;P1;durP2;ratioP2;P2;SDS_P1;SDS_P2;PMS_P1;PMS_P2;Temp;Humidity;BMP_temperature;BMP_pressure;BME280_temperature;BME280_humidity;BME280_pressure;Samples;Min_cycle;Max_cycle;Signal;HPM_P1;HPM_P2
2021/12/27 00:00:58;;;;;;;23.02;19.83;;;4.20;99.90;;;;;;4888436;29;20225;-64
2021/12/27 00:03:27;;;;;;;21.45;18.10;;;4.10;99.90;;;;;;4889488;29;20572;-65
2021/12/27 00:05:55;;;;;;;19.58;17.48;;;4.10;99.90;;;;;;4888483;29;20292;-66
2021/12/27 00:08:24;;;;;;;18.77;16.63;;;4.10;99.90;;;;;;4888339;29;20380;-65
2021/12/27 00:10:51;;;;;;;15.63;14.02;;;4.00;99.90;;;;;;4887035;29;20225;-66
2021/12/27 00:13:20;;;;;;;16.98;15.32;;;3.90;99.90;;;;;;4889049;29;20205;-66
2021/12/27 00:15:47;;;;;;;18.38;16.58;;;4.00;99.90;;;;;;4888874;29;20292;-65
2021/12/27 00:18:15;;;;;;;15.07;13.60;;;4.20;99.90;;;;;;4888086;29;20225;-64
2021/12/27 00:20:45;;;;;;;16.27;14.70;;;4.10;99.90;;;;;;4888107;29;20292;-65
2021/12/27 00:23:12;;;;;;;14.38;12.88;;;4.20;99.90;;;;;;4888354;29;20284;-66
2021/12/27 00:25:40;;;;;;;16.50;14.80;;;4.20;99.90;;;;;;4887287;29;20292;-65
2021/12/27 00:28:08;;;;;;;15.50;13.95;;;4.30;99.90;;;;;;4888488;29;20293;-64
2021/12/27 00:30:38;;;;;;;15.95;14.38;;;4.50;99.90;;;;;;4889000;29;20281;-65
2021/12/27 00:33:08;;;;;;;15.75;14.15;;;4.60;99.90;;;;;;4888206;29;20308;-65
2021/12/27 00:35:36;;;;;;;16.10;14.50;;;4.60;99.90;;;;;;4887728;29;20293;-65
2021/12/27 00:38:05;;;;;;;14.55;13.10;;;4.80;99.90;;;;;;4895922;29;20197;-66
2021/12/27 00:40:34;;;;;;;15.35;13.75;;;4.80;99.90;;;;;;4892807;29;20222;-66
2021/12/27 00:43:01;;;;;;;13.85;12.55;;;4.80;99.90;;;;;;4887672;29;20761;-65
2021/12/27 00:45:29;;;;;;;14.32;12.80;;;4.70;99.90;;;;;;4887640;29;20261;-66
2021/12/27 00:47:57;;;;;;;14.98;13.52;;;4.70;99.90;;;;;;4887296;29;20210;-66
2021/12/27 00:50:25;;;;;;;15.52;13.98;;;4.60;99.90;;;;;;4888460;29;20687;-65
2021/12/27 00:52:53;;;;;;;15.45;13.90;;;4.60;99.90;;;;;;5012195;23;20337;-64
2021/12/27 00:55:23;;;;;;;15.57;13.85;;;4.50;99.90;;;;;;4951331;28;20238;-65
2021/12/27 00:57:53;;;;;;;17.73;15.10;;;4.50;99.90;;;;;;4949457;28;20223;-64
2021/12/27 01:00:23;;;;;;;15.32;13.73;;;4.70;99.90;;;;;;4943793;29;20700;-64
2021/12/27 01:02:53;;;;;;;14.88;13.40;;;4.80;99.90;;;;;;4945149;29;20307;-65
2021/12/27 01:05:23;;;;;;;15.00;13.32;;;4.90;99.90;;;;;;4952037;28;20227;-65
2021/12/27 01:07:51;;;;;;;15.10;13.10;;;4.70;99.90;;;;;;4954272;29;20239;-65
2021/12/27 01:13:23;;;;;;;16.70;15.00;;;4.90;99.90;;;;;;5124554;27;21389;-65
2021/12/27 01:16:10;;;;;;;14.77;13.38;;;4.90;99.90;;;;;;5101925;28;20221;-65
2021/12/27 01:18:41;;;;;;;15.32;13.65;;;4.90;99.90;;;;;;5102054;28;20670;-65
2021/12/27 01:21:10;;;;;;;16.75;13.95;;;4.90;99.90;;;;;;5102028;28;20186;-65
2021/12/27 01:23:38;;;;;;;13.85;12.45;;;4.90;99.90;;;;;;5100302;28;20297;-65
2021/12/27 01:26:06;;;;;;;13.23;11.90;;;5.00;99.90;;;;;;5101778;28;20285;-66
2021/12/27 01:28:36;;;;;;;12.65;11.45;;;5.30;99.90;;;;;;5099760;28;20696;-65
2021/12/27 01:31:04;;;;;;;14.95;13.35;;;5.20;99.90;;;;;;5099358;28;20674;-65
2021/12/27 01:33:32;;;;;;;13.55;12.15;;;5.20;99.90;;;;;;5100817;28;20702;-65
2021/12/27 01:36:02;;;;;;;13.05;11.05;;;5.10;99.90;;;;;;5101875;28;20208;-65
2021/12/27 01:38:30;;;;;;;12.70;11.48;;;5.00;99.90;;;;;;5101549;28;20197;-65
2021/12/27 01:40:58;;;;;;;12.13;10.65;;;5.10;99.90;;;;;;5102184;28;20308;-64
2021/12/27 01:43:29;;;;;;;11.48;10.27;;;5.10;99.90;;;;;;5100331;28;20210;-64
2021/12/27 01:46:00;;;;;;;11.98;10.73;;;4.80;99.90;;;;;;5107194;28;20221;-65
2021/12/27 01:48:33;;;;;;;12.70;10.60;;;4.80;99.90;;;;;;5102193;28;20198;-64
2021/12/27 01:51:02;;;;;;;12.90;11.70;;;4.90;99.90;;;;;;5101279;28;20236;-65
2021/12/27 01:53:32;;;;;;;13.77;12.32;;;5.00;99.90;;;;;;5099067;28;21254;-64
2021/12/27 01:56:01;;;;;;;13.82;12.48;;;5.00;99.90;;;;;;5102266;28;20222;-64
2021/12/27 01:58:29;;;;;;;13.68;12.30;;;4.80;99.90;;;;;;5101468;28;20282;-64
2021/12/27 02:01:00;;;;;;;13.90;12.40;;;4.80;99.90;;;;;;5099868;28;20297;-65
2021/12/27 02:03:30;;;;;;;12.60;11.27;;;4.90;99.90;;;;;;5100113;28;20234;-65
2021/12/27 02:06:00;;;;;;;13.43;12.02;;;4.80;99.90;;;;;;5100169;28;20448;-65
2021/12/27 02:08:29;;;;;;;13.82;12.48;;;4.90;99.90;;;;;;5101033;28;20225;-65
2021/12/27 02:10:56;;;;;;;14.40;12.98;;;5.00;99.90;;;;;;5098659;28;20229;-64
2021/12/27 02:13:24;;;;;;;12.93;11.70;;;5.00;99.90;;;;;;5096122;28;20325;-65
2021/12/27 02:15:52;;;;;;;12.13;10.65;;;5.20;99.90;;;;;;5104845;28;20233;-65
2021/12/27 02:18:21;;;;;;;12.50;11.00;;;5.20;99.90;;;;;;5107906;28;20240;-65
2021/12/27 02:20:51;;;;;;;14.55;13.05;;;5.00;99.90;;;;;;5105421;28;20281;-65
2021/12/27 02:23:22;;;;;;;14.38;12.88;;;4.90;99.90;;;;;;5092245;28;20290;-65
2021/12/27 02:25:51;;;;;;;13.35;11.85;;;4.60;99.90;;;;;;5087259;28;20218;-65
2021/12/27 02:28:21;;;;;;;13.60;12.23;;;4.60;99.90;;;;;;5086984;28;20277;-64
2021/12/27 02:30:52;;;;;;;14.00;12.43;;;4.60;99.90;;;;;;5087516;28;20202;-64
2021/12/27 02:33:20;;;;;;;14.55;12.45;;;4.90;99.90;;;;;;5086149;28;20637;-64
2021/12/27 02:35:49;;;;;;;13.38;11.30;;;4.90;99.90;;;;;;5087334;28;20346;-64
2021/12/27 02:38:20;;;;;;;12.63;11.32;;;5.00;99.90;;;;;;5086100;28;20663;-63
2021/12/27 02:40:51;;;;;;;14.98;12.05;;;5.10;99.90;;;;;;5085313;28;20703;-64
2021/12/27 02:43:20;;;;;;;12.75;11.38;;;5.30;99.90;;;;;;5093361;28;20242;-64
2021/12/27 02:45:51;;;;;;;13.57;11.48;;;5.50;99.90;;;;;;5085901;28;20289;-63
2021/12/27 02:48:21;;;;;;;15.15;12.95;;;5.50;99.90;;;;;;5086439;28;20207;-63
2021/12/27 02:50:51;;;;;;;14.52;11.98;;;5.60;99.90;;;;;;5084461;28;20229;-64
2021/12/27 02:53:21;;;;;;;12.82;11.20;;;5.80;99.90;;;;;;5084150;28;20737;-64
2021/12/27 02:55:51;;;;;;;15.95;12.25;;;5.80;99.90;;;;;;5086157;28;20222;-63
2021/12/27 02:58:19;;;;;;;14.23;11.48;;;5.70;99.90;;;;;;5083487;28;20285;-61
2021/12/27 03:00:52;;;;;;;13.98;12.13;;;5.60;99.90;;;;;;5089156;28;20202;-61
2021/12/27 03:03:20;;;;;;;14.20;12.52;;;5.40;99.90;;;;;;5086368;28;20746;-61
2021/12/27 03:05:49;;;;;;;16.52;14.05;;;5.40;99.90;;;;;;5086614;28;20273;-62
2021/12/27 03:08:18;;;;;;;14.05;11.80;;;5.30;99.90;;;;;;5086778;28;20293;-61
2021/12/27 03:10:50;;;;;;;16.20;12.52;;;5.40;99.90;;;;;;5085130;28;20277;-61
2021/12/27 03:13:19;;;;;;;16.95;12.32;;;5.40;99.90;;;;;;5082902;28;20317;-64
2021/12/27 03:15:51;;;;;;;15.43;12.88;;;5.20;99.90;;;;;;5086536;28;20199;-65
2021/12/27 03:18:20;;;;;;;14.88;12.95;;;5.40;99.90;;;;;;5085801;28;20202;-64
2021/12/27 03:20:49;;;;;;;16.83;12.70;;;5.50;99.90;;;;;;5084592;28;20202;-64
2021/12/27 03:23:17;;;;;;;15.07;12.25;;;5.40;99.90;;;;;;5083567;28;20313;-64
2021/12/27 03:25:47;;;;;;;17.38;12.68;;;5.60;99.90;;;;;;5088523;28;20206;-65
2021/12/27 03:28:15;;;;;;;15.40;12.63;;;5.40;99.90;;;;;;5084436;28;20290;-64
2021/12/27 03:30:44;;;;;;;20.98;14.90;;;5.30;99.90;;;;;;5083106;28;20283;-64
2021/12/27 03:33:12;;;;;;;18.58;14.02;;;5.50;99.90;;;;;;5083788;28;20305;-64
2021/12/27 03:35:51;;;;;;;20.80;15.05;;;5.50;99.90;;;;;;5084623;28;20734;-64
2021/12/27 03:38:19;;;;;;;19.58;14.15;;;5.60;99.90;;;;;;5086110;28;20609;-65
2021/12/27 03:40:50;;;;;;;15.75;12.73;;;5.50;99.90;;;;;;5084353;28;20277;-65
2021/12/27 03:43:18;;;;;;;22.17;14.90;;;5.40;99.90;;;;;;5085942;28;20298;-65
2021/12/27 03:45:45;;;;;;;15.85;12.88;;;5.60;99.90;;;;;;5085196;28;20289;-63
2021/12/27 03:48:14;;;;;;;19.95;15.23;;;5.60;99.90;;;;;;5085817;28;20260;-63
2021/12/27 03:50:41;;;;;;;17.13;13.52;;;5.70;99.90;;;;;;5086054;28;20289;-64
2021/12/27 03:53:10;;;;;;;20.98;14.38;;;5.80;99.90;;;;;;5085525;28;20654;-63
2021/12/27 03:55:38;;;;;;;18.98;13.35;;;6.00;99.90;;;;;;5088324;28;20301;-64
2021/12/27 03:58:10;;;;;;;15.90;12.88;;;6.00;99.90;;;;;;5086184;28;20291;-64
2021/12/27 04:01:00;;;;;;;17.75;13.90;;;6.00;99.90;;;;;;5085921;28;20199;-62
2021/12/27 04:03:29;;;;;;;17.77;12.77;;;5.80;99.90;;;;;;5084425;28;20219;-63
2021/12/27 04:05:58;;;;;;;18.58;12.70;;;5.70;99.90;;;;;;5085526;28;20239;-62
2021/12/27 04:08:26;;;;;;;19.55;15.30;;;5.60;99.90;;;;;;5087153;28;20261;-63
2021/12/27 04:10:55;;;;;;;19.75;14.25;;;5.40;99.90;;;;;;5084485;28;20229;-63
2021/12/27 04:13:25;;;;;;;20.55;14.88;;;5.30;99.90;;;;;;5083123;28;20214;-63
2021/12/27 04:15:53;;;;;;;20.08;13.63;;;5.30;99.90;;;;;;5085616;28;20227;-63
2021/12/27 04:18:21;;;;;;;17.52;13.38;;;5.30;99.90;;;;;;5086742;28;20209;-63
2021/12/27 04:20:49;;;;;;;19.92;15.23;;;5.40;99.90;;;;;;5092387;28;20186;-63
2021/12/27 04:23:17;;;;;;;20.05;14.43;;;5.60;99.90;;;;;;5086027;28;20302;-62
2021/12/27 04:25:46;;;;;;;17.75;13.93;;;5.60;99.90;;;;;;5085023;28;20655;-63
2021/12/27 04:28:15;;;;;;;19.25;13.48;;;5.80;99.90;;;;;;5085087;28;20694;-63
2021/12/27 04:30:45;;;;;;;20.00;14.13;;;6.00;99.90;;;;;;5083087;28;20599;-63
2021/12/27 04:33:13;;;;;;;18.98;13.63;;;6.10;99.90;;;;;;5090740;28;20218;-63
2021/12/27 04:35:41;;;;;;;20.00;14.23;;;6.10;99.90;;;;;;5085419;28;20719;-62
2021/12/27 04:38:09;;;;;;;17.75;13.93;;;6.10;99.90;;;;;;5083013;28;20293;-62
2021/12/27 04:40:40;;;;;;;21.20;14.57;;;5.90;99.90;;;;;;5083896;28;20237;-61
2021/12/27 04:43:11;;;;;;;18.70;13.32;;;5.70;99.90;;;;;;5084343;28;20284;-62
2021/12/27 04:45:39;;;;;;;22.25;14.98;;;5.70;99.90;;;;;;5084107;28;20255;-63
2021/12/27 04:48:09;;;;;;;19.05;14.20;;;5.70;99.90;;;;;;5084532;28;20268;-63
2021/12/27 04:50:38;;;;;;;18.15;13.00;;;5.60;99.90;;;;;;5071178;28;20278;-62
2021/12/27 04:53:06;;;;;;;21.88;14.15;;;5.60;99.90;;;;;;5084474;28;20297;-62
2021/12/27 04:55:35;;;;;;;20.13;14.43;;;5.60;99.90;;;;;;5083910;28;20237;-61
2021/12/27 04:58:04;;;;;;;20.85;13.90;;;5.60;99.90;;;;;;5084586;28;20281;-62
2021/12/27 05:00:32;;;;;;;20.90;13.88;;;5.60;99.90;;;;;;5089144;28;20228;-62
2021/12/27 05:03:00;;;;;;;18.98;12.20;;;5.50;99.90;;;;;;5087173;28;20272;-63
2021/12/27 05:05:31;;;;;;;18.33;13.85;;;5.60;99.90;;;;;;5087258;28;20304;-63
2021/12/27 05:08:00;;;;;;;20.38;12.45;;;5.60;99.90;;;;;;5084249;28;20726;-63
2021/12/27 05:10:28;;;;;;;15.88;12.50;;;5.30;99.90;;;;;;5084556;28;20240;-63
2021/12/27 05:12:57;;;;;;;17.98;12.57;;;5.10;99.90;;;;;;5083263;28;20772;-63
2021/12/27 05:15:25;;;;;;;25.67;14.95;;;5.00;99.90;;;;;;5081822;28;20225;-62
2021/12/27 05:17:53;;;;;;;23.27;13.27;;;5.10;99.90;;;;;;5084317;28;20742;-63
2021/12/27 05:20:22;;;;;;;19.33;12.40;;;5.10;99.90;;;;;;5083506;28;20310;-63
2021/12/27 05:22:51;;;;;;;19.13;14.35;;;5.20;99.90;;;;;;5084065;28;20249;-64
2021/12/27 05:25:19;;;;;;;22.40;15.40;;;5.20;99.90;;;;;;5083372;28;20285;-62
2021/12/27 05:27:47;;;;;;;17.40;12.32;;;5.40;99.90;;;;;;5084050;28;20230;-63
2021/12/27 05:30:19;;;;;;;17.10;12.52;;;5.20;99.90;;;;;;5084883;28;20210;-63
2021/12/27 05:32:48;;;;;;;17.65;10.90;;;5.00;99.90;;;;;;5089015;28;20233;-63
2021/12/27 05:35:17;;;;;;;18.23;13.57;;;4.80;99.90;;;;;;5083160;28;20317;-62
2021/12/27 05:37:46;;;;;;;19.85;12.05;;;4.80;99.90;;;;;;5083935;28;20225;-62
2021/12/27 05:40:20;;;;;;;17.48;12.43;;;4.70;99.90;;;;;;5084331;28;20277;-62
2021/12/27 05:42:49;;;;;;;20.10;12.68;;;4.90;99.90;;;;;;5083950;28;20222;-62
2021/12/27 05:45:19;;;;;;;17.10;11.80;;;4.70;99.90;;;;;;5082642;28;20226;-62
2021/12/27 05:47:47;;;;;;;18.30;11.18;;;4.70;99.90;;;;;;5089670;28;20264;-63
2021/12/27 05:50:16;;;;;;;15.10;11.98;;;4.80;99.90;;;;;;5082917;28;20235;-63
2021/12/27 05:52:44;;;;;;;14.30;10.70;;;4.80;99.90;;;;;;5082561;28;20655;-63
2021/12/27 05:55:14;;;;;;;12.65;9.98;;;5.00;99.90;;;;;;5087121;28;20297;-64
2021/12/27 05:57:42;;;;;;;13.45;9.88;;;5.00;99.90;;;;;;5086434;28;20230;-64
2021/12/27 06:00:13;;;;;;;16.00;10.50;;;5.00;99.90;;;;;;5088017;28;22461;-64
2021/12/27 06:02:41;;;;;;;13.35;10.13;;;4.90;99.90;;;;;;5085825;28;20219;-64
2021/12/27 06:05:09;;;;;;;13.55;9.75;;;5.00;99.90;;;;;;5093470;28;20191;-62
2021/12/27 06:07:37;;;;;;;17.15;12.07;;;5.10;99.90;;;;;;5093126;28;20225;-63
2021/12/27 06:10:07;;;;;;;13.02;10.30;;;5.10;99.90;;;;;;5093096;28;20229;-63
2021/12/27 06:12:36;;;;;;;11.60;9.07;;;5.20;99.90;;;;;;5092859;28;20226;-62
2021/12/27 06:15:04;;;;;;;10.57;8.45;;;5.40;99.90;;;;;;5090073;28;20725;-62
2021/12/27 06:17:33;;;;;;;11.30;8.15;;;5.60;99.90;;;;;;5089630;28;20638;-63
2021/12/27 06:20:01;;;;;;;9.70;7.03;;;5.50;99.90;;;;;;5090937;28;20198;-62
2021/12/27 06:22:29;;;;;;;12.32;8.43;;;5.70;99.90;;;;;;5092882;28;20210;-63
2021/12/27 06:24:58;;;;;;;10.98;8.15;;;5.90;99.90;;;;;;5092986;28;20630;-63
2021/12/27 06:27:26;;;;;;;9.38;7.00;;;5.90;99.90;;;;;;5093367;28;20197;-64
2021/12/27 06:29:56;;;;;;;9.43;6.80;;;6.00;99.90;;;;;;5088973;28;20270;-64
2021/12/27 06:32:23;;;;;;;10.55;8.80;;;5.90;99.90;;;;;;5092275;28;20218;-62
2021/12/27 06:34:51;;;;;;;8.27;7.07;;;6.00;99.90;;;;;;5092726;28;20789;-62
2021/12/27 06:37:20;;;;;;;8.45;7.50;;;6.00;99.90;;;;;;5092904;28;20678;-62
2021/12/27 06:39:48;;;;;;;11.38;7.97;;;6.00;99.90;;;;;;5093028;28;20269;-63
2021/12/27 06:42:16;;;;;;;11.18;9.45;;;6.00;99.90;;;;;;5092537;28;20250;-63
2021/12/27 06:44:43;;;;;;;11.93;10.38;;;6.00;99.90;;;;;;5090345;28;20281;-63
2021/12/27 06:47:13;;;;;;;13.00;10.00;;;5.90;99.90;;;;;;5091430;28;20190;-62
2021/12/27 06:49:42;;;;;;;11.93;9.25;;;5.70;99.90;;;;;;5091060;28;20232;-62
2021/12/27 06:52:11;;;;;;;13.02;10.27;;;5.70;99.90;;;;;;5088259;28;20659;-63
2021/12/27 06:54:40;;;;;;;11.10;9.88;;;5.50;99.90;;;;;;5090982;28;20687;-62
2021/12/27 06:57:09;;;;;;;13.32;10.25;;;5.30;99.90;;;;;;5091275;28;20195;-62
2021/12/27 06:59:37;;;;;;;11.98;8.75;;;5.20;99.90;;;;;;5091222;28;20733;-62
2021/12/27 07:02:06;;;;;;;9.23;8.32;;;5.10;99.90;;;;;;5090513;28;20313;-62
2021/12/27 07:04:35;;;;;;;13.10;9.45;;;5.10;99.90;;;;;;5088537;28;20191;-63
2021/12/27 07:07:04;;;;;;;12.60;10.02;;;5.20;99.90;;;;;;5091766;28;20289;-64
2021/12/27 07:09:32;;;;;;;13.48;10.57;;;5.30;99.90;;;;;;5087457;28;20244;-63
2021/12/27 07:11:59;;;;;;;11.63;9.32;;;5.00;99.90;;;;;;5090481;28;20337;-63
2021/12/27 07:14:29;;;;;;;12.70;10.27;;;4.80;99.90;;;;;;5086716;28;20221;-64
2021/12/27 07:16:57;;;;;;;14.40;12.10;;;4.90;99.90;;;;;;5090073;28;20278;-63
2021/12/27 07:19:25;;;;;;;12.75;11.32;;;4.90;99.90;;;;;;5090868;28;20195;-63
2021/12/27 07:21:54;;;;;;;14.48;12.27;;;5.00;99.90;;;;;;5090835;28;20217;-63
2021/12/27 07:24:22;;;;;;;12.70;10.55;;;5.10;99.90;;;;;;5089062;28;20202;-63
2021/12/27 07:26:52;;;;;;;13.27;10.00;;;5.00;99.90;;;;;;5090719;28;21025;-62
2021/12/27 07:29:20;;;;;;;12.32;10.75;;;4.80;99.90;;;;;;5086840;28;20986;-63
2021/12/27 07:31:49;;;;;;;13.27;11.80;;;5.10;99.90;;;;;;5090356;28;20273;-62
2021/12/27 07:34:19;;;;;;;14.55;12.20;;;4.90;99.90;;;;;;5090081;28;20202;-62
2021/12/27 07:36:47;;;;;;;15.00;13.07;;;4.60;99.90;;;;;;5090474;28;20197;-63
2021/12/27 07:39:17;;;;;;;14.07;12.57;;;4.50;99.90;;;;;;5090580;28;20201;-62
2021/12/27 07:41:46;;;;;;;14.20;12.20;;;4.50;99.90;;;;;;5090283;28;20687;-62
2021/12/27 07:44:14;;;;;;;15.45;12.52;;;4.30;99.90;;;;;;5087224;28;20314;-62
2021/12/27 07:46:45;;;;;;;15.10;11.85;;;4.40;99.90;;;;;;5090272;28;20214;-63
2021/12/27 07:49:14;;;;;;;15.13;12.50;;;4.50;99.90;;;;;;5090326;28;20233;-62
2021/12/27 07:51:43;;;;;;;14.50;11.25;;;4.50;99.90;;;;;;5090241;28;20194;-63
2021/12/27 07:54:11;;;;;;;15.05;11.93;;;4.50;99.90;;;;;;5086217;28;20276;-63
2021/12/27 07:56:41;;;;;;;16.23;12.38;;;4.40;99.90;;;;;;5089352;28;20301;-62
2021/12/27 07:59:10;;;;;;;19.50;11.82;;;4.30;99.90;;;;;;5090138;28;20422;-62
2021/12/27 08:01:40;;;;;;;16.50;13.18;;;4.30;99.90;;;;;;5089946;28;20231;-62
2021/12/27 08:04:09;;;;;;;16.35;13.63;;;4.50;99.90;;;;;;5087519;28;20195;-63
2021/12/27 08:06:37;;;;;;;17.05;13.40;;;4.50;99.90;;;;;;5089729;28;20252;-62
2021/12/27 08:09:07;;;;;;;19.75;15.23;;;4.30;99.90;;;;;;5089749;28;20919;-62
2021/12/27 08:11:35;;;;;;;16.17;13.00;;;4.30;99.90;;;;;;5089432;28;20231;-64
2021/12/27 08:14:04;;;;;;;17.73;13.00;;;4.50;99.90;;;;;;5087908;28;20290;-64
2021/12/27 08:16:32;;;;;;;19.20;12.73;;;4.40;99.90;;;;;;5089784;28;20303;-64
2021/12/27 08:19:00;;;;;;;17.92;13.25;;;4.40;99.90;;;;;;5087870;28;20232;-64
2021/12/27 08:21:29;;;;;;;15.63;12.23;;;4.30;99.90;;;;;;5088967;28;20199;-64
2021/12/27 08:23:56;;;;;;;21.85;14.48;;;4.40;99.90;;;;;;5090538;28;20238;-64
2021/12/27 08:26:24;;;;;;;17.75;13.00;;;4.50;99.90;;;;;;5090919;28;20206;-64
2021/12/27 08:28:54;;;;;;;21.65;14.30;;;4.60;99.90;;;;;;5086793;28;20667;-64
2021/12/27 08:31:23;;;;;;;23.48;14.45;;;4.50;99.90;;;;;;5089565;28;20222;-64
2021/12/27 08:33:51;;;;;;;25.42;15.25;;;4.50;99.90;;;;;;5089218;28;20222;-66
2021/12/27 08:36:20;;;;;;;24.55;15.07;;;4.50;99.90;;;;;;5090383;28;20310;-64
2021/12/27 08:38:49;;;;;;;22.30;14.25;;;4.40;99.90;;;;;;5084637;28;20199;-64
2021/12/27 08:41:19;;;;;;;26.13;14.95;;;4.50;99.90;;;;;;5090639;28;20244;-64
2021/12/27 08:43:48;;;;;;;24.00;13.95;;;4.40;99.90;;;;;;5089839;28;20302;-64
2021/12/27 08:46:16;;;;;;;27.80;15.63;;;4.40;99.90;;;;;;5089432;28;20237;-64
2021/12/27 08:48:45;;;;;;;30.45;16.05;;;4.40;99.90;;;;;;5090183;28;20209;-64
2021/12/27 08:51:13;;;;;;;24.33;16.45;;;4.40;99.90;;;;;;5089949;28;20621;-65
2021/12/27 08:53:41;;;;;;;24.73;16.20;;;4.40;99.90;;;;;;5091058;28;20253;-64
2021/12/27 08:56:09;;;;;;;27.05;16.73;;;4.50;99.90;;;;;;5090602;28;20253;-65
2021/12/27 08:58:37;;;;;;;25.88;15.80;;;4.50;99.90;;;;;;5090972;28;20223;-64
2021/12/27 09:01:06;;;;;;;32.60;15.88;;;4.50;99.90;;;;;;5091406;28;20233;-65
2021/12/27 09:03:35;;;;;;;34.08;19.10;;;4.50;99.90;;;;;;5090824;28;20924;-65
2021/12/27 09:06:05;;;;;;;42.20;21.40;;;4.60;99.90;;;;;;5091253;28;20273;-65
2021/12/27 09:08:33;;;;;;;31.95;20.38;;;4.60;99.90;;;;;;5091527;28;20663;-65
2021/12/27 09:11:01;;;;;;;30.25;19.92;;;4.60;99.90;;;;;;5091355;28;20218;-65
2021/12/27 09:13:31;;;;;;;27.73;19.08;;;4.70;99.90;;;;;;5090606;28;20741;-64
2021/12/27 09:16:01;;;;;;;34.28;17.50;;;4.70;99.90;;;;;;5082688;28;20313;-64
2021/12/27 09:18:29;;;;;;;31.02;18.63;;;4.70;99.90;;;;;;5089730;28;20194;-64
2021/12/27 09:20:57;;;;;;;34.75;18.38;;;4.70;99.90;;;;;;5090325;28;20218;-67
2021/12/27 09:23:27;;;;;;;31.92;17.10;;;4.70;99.90;;;;;;5091043;28;20307;-64
2021/12/27 09:25:55;;;;;;;34.17;18.90;;;4.60;99.90;;;;;;5091442;28;20193;-65
2021/12/27 09:28:23;;;;;;;32.40;16.92;;;4.60;99.90;;;;;;5091527;28;20237;-64
2021/12/27 09:30:51;;;;;;;40.08;18.92;;;4.60;99.90;;;;;;5091313;28;20278;-65
2021/12/27 09:33:19;;;;;;;33.70;17.55;;;4.60;99.90;;;;;;5090309;28;20275;-64
2021/12/27 09:35:47;;;;;;;34.95;17.90;;;4.60;99.90;;;;;;5095150;28;20762;-64
2021/12/27 09:38:15;;;;;;;39.83;20.48;;;4.50;99.90;;;;;;5095452;28;20225;-64
2021/12/27 09:40:45;;;;;;;58.17;21.70;;;4.50;99.90;;;;;;5095746;28;20222;-64
2021/12/27 09:43:13;;;;;;;41.67;21.33;;;4.50;99.90;;;;;;5095478;28;20211;-65
2021/12/27 09:45:41;;;;;;;41.80;22.15;;;4.50;99.90;;;;;;5086991;28;20232;-64
2021/12/27 09:48:09;;;;;;;41.28;20.02;;;4.60;99.90;;;;;;5095025;28;20713;-65
2021/12/27 09:50:40;;;;;;;43.78;21.25;;;4.60;99.90;;;;;;5095255;28;20237;-66
2021/12/27 09:53:09;;;;;;;41.75;21.17;;;4.60;99.90;;;;;;5095012;28;20238;-64
2021/12/27 09:55:48;;;;;;;40.65;24.35;;;4.70;99.90;;;;;;5094912;28;20222;-65
2021/12/27 09:58:16;;;;;;;49.40;24.00;;;4.80;99.90;;;;;;5092923;28;20215;-64
2021/12/27 10:00:44;;;;;;;41.03;20.95;;;4.70;99.90;;;;;;5074758;28;20310;-64
2021/12/27 10:03:12;;;;;;;39.72;20.77;;;4.80;99.90;;;;;;5074423;28;20235;-64
2021/12/27 10:05:40;;;;;;;54.92;23.10;;;4.90;99.90;;;;;;5080852;28;20208;-65
2021/12/27 10:08:08;;;;;;;42.08;20.15;;;4.90;99.90;;;;;;5091430;28;20203;-63
2021/12/27 10:10:37;;;;;;;40.53;18.50;;;4.90;99.90;;;;;;5094032;28;20191;-62
2021/12/27 10:13:09;;;;;;;41.08;17.73;;;4.90;99.90;;;;;;5089843;28;20230;-63
2021/12/27 10:15:40;;;;;;;43.92;18.25;;;4.90;99.90;;;;;;5093624;28;20622;-63
2021/12/27 10:18:13;;;;;;;43.35;18.42;;;4.90;99.90;;;;;;5091049;28;20214;-63
2021/12/27 10:20:42;;;;;;;49.28;19.02;;;4.80;99.90;;;;;;5090933;28;20268;-63
2021/12/27 10:23:12;;;;;;;65.90;19.85;;;4.80;99.90;;;;;;5093874;28;20244;-63
2021/12/27 10:25:40;;;;;;;59.92;21.65;;;4.90;99.90;;;;;;5093830;28;20240;-63
2021/12/27 10:28:09;;;;;;;35.47;19.42;;;4.90;99.90;;;;;;5094149;28;20190;-63
2021/12/27 10:30:44;;;;;;;49.30;19.75;;;4.90;99.90;;;;;;5087801;28;20218;-63
2021/12/27 10:33:19;;;;;;;54.80;21.35;;;4.90;99.90;;;;;;5093664;28;20293;-63
2021/12/27 10:35:49;;;;;;;51.58;24.90;;;4.90;99.90;;;;;;5093845;28;20279;-64
2021/12/27 10:38:20;;;;;;;55.95;22.60;;;4.90;99.90;;;;;;5093368;28;20241;-63
2021/12/27 10:40:50;;;;;;;47.03;22.30;;;4.90;99.90;;;;;;5090324;28;20194;-63
2021/12/27 10:43:32;;;;;;;37.90;19.45;;;5.00;99.90;;;;;;5093231;28;20254;-62
2021/12/27 10:46:01;;;;;;;44.38;22.13;;;5.00;99.90;;;;;;5093390;28;20229;-63
2021/12/27 10:48:33;;;;;;;39.80;21.13;;;5.10;99.90;;;;;;5093549;28;20207;-63
2021/12/27 10:51:01;;;;;;;38.85;20.55;;;5.10;99.90;;;;;;5090770;28;20222;-63
2021/12/27 10:53:46;;;;;;;47.03;20.13;;;5.10;99.90;;;;;;5081387;28;20257;-63
2021/12/27 10:56:14;;;;;;;39.25;19.60;;;5.10;99.90;;;;;;5104778;22;20266;-63
2021/12/27 10:58:53;;;;;;;37.72;20.15;;;5.20;99.90;;;;;;5079788;28;20274;-62
2021/12/27 11:01:23;;;;;;;34.00;17.13;;;5.20;99.90;;;;;;5073713;28;20290;-61
2021/12/27 11:03:52;;;;;;;29.27;16.48;;;5.20;99.90;;;;;;5071763;28;20279;-61
2021/12/27 11:06:22;;;;;;;33.72;17.65;;;5.30;99.90;;;;;;5058519;28;20291;-62
2021/12/27 11:08:52;;;;;;;29.85;14.98;;;5.30;99.90;;;;;;5066642;28;20231;-62
2021/12/27 11:11:21;;;;;;;25.50;13.95;;;5.30;99.90;;;;;;5053618;28;20203;-61
2021/12/27 11:13:53;;;;;;;33.15;16.67;;;5.30;99.90;;;;;;5059174;28;20268;-62
2021/12/27 11:16:21;;;;;;;26.30;14.68;;;5.30;99.90;;;;;;5059793;28;20243;-62
2021/12/27 11:18:50;;;;;;;26.60;15.73;;;5.40;99.90;;;;;;5055182;28;20191;-61
2021/12/27 11:21:22;;;;;;;27.17;14.88;;;5.40;99.90;;;;;;5053819;28;20706;-62
2021/12/27 11:23:52;;;;;;;34.47;15.88;;;5.50;99.90;;;;;;5070806;28;20861;-61
2021/12/27 11:26:30;;;;;;;25.42;14.90;;;5.50;99.90;;;;;;5072263;28;20285;-62
2021/12/27 11:29:15;;;;;;;22.85;13.75;;;5.50;99.90;;;;;;5071657;28;20202;-61
2021/12/27 11:31:44;;;;;;;30.77;15.40;;;5.60;99.90;;;;;;5072280;28;20333;-61
2021/12/27 11:34:13;;;;;;;30.88;15.95;;;5.60;99.90;;;;;;5065988;28;20223;-61
2021/12/27 11:36:45;;;;;;;26.52;14.90;;;5.50;99.90;;;;;;5066971;28;20227;-63
2021/12/27 11:39:22;;;;;;;40.25;17.42;;;5.60;99.90;;;;;;5068118;28;20295;-63
2021/12/27 11:41:58;;;;;;;32.50;16.98;;;5.60;99.90;;;;;;5067058;28;20257;-62
2021/12/27 11:44:40;;;;;;;34.58;17.00;;;5.70;99.90;;;;;;5067366;28;20620;-62
2021/12/27 11:47:08;;;;;;;30.05;15.35;;;5.60;99.90;;;;;;5066366;28;20205;-63
2021/12/27 11:49:55;;;;;;;36.95;17.90;;;5.70;99.90;;;;;;5079275;28;20202;-63
2021/12/27 11:52:25;;;;;;;33.20;17.00;;;5.60;99.90;;;;;;5085381;28;20285;-64
2021/12/27 11:54:56;;;;;;;28.98;16.33;;;5.70;99.90;;;;;;5066500;28;20434;-64
2021/12/27 11:57:49;;;;;;;32.47;16.63;;;5.70;99.90;;;;;;5071147;28;20217;-63
2021/12/27 12:00:38;;;;;;;32.75;17.45;;;5.70;99.90;;;;;;5074485;28;20731;-65
2021/12/27 12:03:38;;;;;;;29.55;16.92;;;5.70;99.90;;;;;;5087183;28;20203;-64
2021/12/27 12:06:27;;;;;;;26.58;15.80;;;5.80;99.90;;;;;;5063325;28;20303;-63
2021/12/27 12:08:57;;;;;;;30.05;19.58;;;5.80;99.90;;;;;;5074499;28;20205;-63
2021/12/27 12:11:33;;;;;;;25.33;14.57;;;5.90;99.90;;;;;;5067069;28;20744;-64
2021/12/27 12:14:26;;;;;;;23.73;13.82;;;6.00;99.90;;;;;;5066829;28;20197;-62
2021/12/27 12:16:54;;;;;;;30.90;17.77;;;6.00;99.90;;;;;;5070740;28;20255;-62
2021/12/27 12:19:40;;;;;;;32.50;17.05;;;6.10;99.90;;;;;;5070506;28;20203;-64
2021/12/27 12:22:29;;;;;;;34.78;17.25;;;6.20;99.90;;;;;;5059747;28;20227;-63
2021/12/27 12:25:19;;;;;;;27.58;16.42;;;6.20;99.90;;;;;;5066528;28;20205;-64
2021/12/27 12:27:55;;;;;;;29.75;16.25;;;6.30;99.90;;;;;;5070666;28;20249;-61
2021/12/27 12:30:27;;;;;;;40.65;25.63;;;6.20;99.90;;;;;;5072145;28;20285;-61
2021/12/27 12:32:58;;;;;;;35.25;22.33;;;6.20;99.90;;;;;;5057265;28;20200;-63
2021/12/27 12:35:36;;;;;;;30.35;18.52;;;6.30;99.90;;;;;;5065855;28;20699;-63
2021/12/27 12:38:17;;;;;;;31.27;17.30;;;6.30;99.90;;;;;;5065837;28;20210;-63
2021/12/27 12:40:58;;;;;;;29.67;17.70;;;6.20;99.90;;;;;;5069085;28;20218;-64
2021/12/27 12:43:49;;;;;;;28.60;16.55;;;6.20;99.90;;;;;;5066248;28;20277;-64
2021/12/27 12:46:21;;;;;;;28.33;16.10;;;6.20;99.90;;;;;;5066143;28;20308;-61
2021/12/27 12:49:07;;;;;;;26.77;16.38;;;6.30;99.90;;;;;;5074189;28;20682;-64
2021/12/27 12:51:40;;;;;;;22.33;14.15;;;6.30;99.90;;;;;;5084028;28;20302;-64
2021/12/27 12:54:22;;;;;;;24.15;15.73;;;6.30;99.90;;;;;;5066558;28;20285;-64
2021/12/27 12:56:52;;;;;;;33.05;17.80;;;6.40;99.90;;;;;;5070019;28;20284;-64